Time;durP1;ratioP1;P1;durP2;ratioP2;P2;SDS_P1;SDS_P2;PMS_P1;PMS_P2;Temp;Humidity;BMP_temperature;BMP_pressure;BME280_temperature;BME280_humidity;BME280_pressure;Samples;Min_cycle;Max_cycle;Signal;HPM_P1;HPM_P2
2023/08/18 00:00:08;;;;;;;4.90;2.97;;;;;;;22.79;42.70;93950.41;4994863;28;20049;-79
2023/08/18 00:02:34;;;;;;;5.40;3.28;;;;;;;22.78;42.99;93938.00;4989765;28;20474;-77
2023/08/18 00:05:00;;;;;;;4.13;2.92;;;;;;;22.91;42.59;93941.13;4989990;28;20031;-77
2023/08/18 00:07:25;;;;;;;5.53;3.40;;;;;;;22.82;42.56;93943.44;4990073;28;20035;-78
2023/08/18 00:09:51;;;;;;;3.75;3.30;;;;;;;22.96;41.90;93940.75;4990447;28;20042;-77
2023/08/18 00:12:16;;;;;;;6.32;3.47;;;;;;;22.99;42.01;93938.03;4989577;28;20424;-76
2023/08/18 00:14:42;;;;;;;7.45;3.25;;;;;;;23.06;41.87;93935.31;4985118;28;20143;-78
2023/08/18 00:17:07;;;;;;;6.32;3.13;;;;;;;22.95;41.41;93931.06;4989436;28;20022;-79
2023/08/18 00:19:32;;;;;;;6.85;3.00;;;;;;;22.87;42.02;93924.09;4984620;28;20050;-78
2023/08/18 00:21:58;;;;;;;4.60;2.67;;;;;;;22.78;41.87;93938.00;4984511;28;20804;-78
2023/08/18 00:24:24;;;;;;;4.38;3.53;;;;;;;22.92;41.71;93921.78;4990160;28;20371;-78
2023/08/18 00:26:49;;;;;;;6.07;3.15;;;;;;;22.79;41.64;93904.31;4987475;28;20482;-79
2023/08/18 00:29:15;;;;;;;6.13;2.90;;;;;;;22.87;41.66;93919.44;4992155;28;20024;-78
2023/08/18 00:31:40;;;;;;;7.43;3.60;;;;;;;22.71;41.98;93910.91;4991788;28;20428;-78
2023/08/18 00:34:06;;;;;;;5.05;3.22;;;;;;;22.88;41.75;93918.28;4995104;28;20042;-79
2023/08/18 00:36:32;;;;;;;7.68;2.55;;;;;;;22.84;41.71;93916.69;4988377;28;20049;-77
2023/08/18 00:39:02;;;;;;;4.25;3.25;;;;;;;23.02;41.27;93921.00;4986641;28;20122;-76
2023/08/18 00:41:27;;;;;;;6.90;3.08;;;;;;;23.06;41.25;93910.13;4992954;28;20144;-78
2023/08/18 00:43:53;;;;;;;6.88;3.78;;;;;;;23.29;40.77;93920.56;4988428;28;20041;-77
2023/08/18 00:46:19;;;;;;;6.72;2.70;;;;;;;23.08;41.19;93922.13;4991378;28;20060;-79
2023/08/18 00:48:45;;;;;;;3.90;3.00;;;;;;;23.19;40.95;93913.97;4988610;28;20477;-78
2023/08/18 00:51:11;;;;;;;5.80;3.08;;;;;;;23.45;40.75;93921.69;4993063;28;20068;-78
2023/08/18 00:53:40;;;;;;;4.95;3.38;;;;;;;23.27;40.70;93893.06;4995165;28;20471;-78
2023/08/18 00:56:06;;;;;;;4.70;2.85;;;;;;;23.47;40.79;93902.28;4989386;28;20486;-78
2023/08/18 00:58:33;;;;;;;4.70;3.22;;;;;;;23.70;40.81;93916.22;4981608;28;20053;-79
2023/08/18 01:00:59;;;;;;;4.75;3.10;;;;;;;23.66;40.11;93904.56;4987279;28;20091;-78
2023/08/18 01:03:25;;;;;;;5.55;2.80;;;;;;;23.66;40.60;93910.00;4992273;28;20072;-77
2023/08/18 01:05:50;;;;;;;8.25;3.63;;;;;;;23.67;40.54;93927.06;4987528;28;20032;-80
2023/08/18 01:08:16;;;;;;;6.80;3.55;;;;;;;23.76;40.29;93920.03;5003865;28;20027;-79
2023/08/18 01:10:57;;;;;;;4.57;3.00;;;;;;;23.83;40.28;93925.47;4988538;28;20510;-79
2023/08/18 01:13:44;;;;;;;6.88;3.15;;;;;;;23.60;40.69;93921.66;4992349;28;20569;-78
2023/08/18 01:16:19;;;;;;;5.18;3.05;;;;;;;23.52;41.07;93924.38;4984501;28;20469;-78
2023/08/18 01:18:44;;;;;;;;;;;;;;;23.60;41.08;93927.88;4992487;28;20034;-78
2023/08/18 01:21:12;;;;;;;5.25;3.15;;;;;;;23.46;41.37;93904.25;4992770;28;19960;-79
2023/08/18 01:23:38;;;;;;;9.65;3.22;;;;;;;23.66;41.31;93926.28;4989170;28;20112;-78
2023/08/18 01:26:04;;;;;;;4.45;3.55;;;;;;;23.70;41.78;93932.50;4991215;28;20034;-77
2023/08/18 01:28:30;;;;;;;5.90;3.60;;;;;;;23.56;42.25;93932.53;4994451;28;20572;-80
2023/08/18 01:30:57;;;;;;;6.20;3.88;;;;;;;23.54;42.10;93929.44;4983743;28;20042;-80
2023/08/18 01:33:34;;;;;;;9.70;4.38;;;;;;;23.60;42.13;93933.31;4986200;28;20039;-76
2023/08/18 01:36:05;;;;;;;5.60;4.07;;;;;;;23.71;42.05;93950.31;4992111;28;20062;-77
2023/08/18 01:38:32;;;;;;;5.03;4.55;;;;;;;23.70;42.36;93946.06;4983554;28;20044;-78
2023/08/18 01:40:58;;;;;;;5.60;3.58;;;;;;;23.63;42.72;93943.38;5006699;28;20365;-77
2023/08/18 01:43:24;;;;;;;8.45;5.18;;;;;;;23.70;42.58;93948.00;4991420;28;20061;-77
2023/08/18 01:45:49;;;;;;;7.38;4.15;;;;;;;23.56;42.85;93940.69;4988266;28;20449;-77
2023/08/18 01:48:14;;;;;;;6.78;4.07;;;;;;;23.30;43.00;93919.38;4990156;28;20971;-78
2023/08/18 01:50:40;;;;;;;4.20;3.80;;;;;;;23.53;42.95;93949.59;4989586;28;20037;-79
2023/08/18 01:53:05;;;;;;;6.90;4.18;;;;;;;23.41;43.04;93925.56;4991118;28;20105;-78
2023/08/18 01:55:31;;;;;;;9.57;4.55;;;;;;;23.47;43.24;93945.69;4986351;28;20043;-79
2023/08/18 01:57:56;;;;;;;7.65;4.35;;;;;;;23.40;42.93;93935.66;4988706;28;20060;-79
2023/08/18 02:00:21;;;;;;;6.78;4.28;;;;;;;23.40;43.02;93932.94;4989869;28;20034;-78
2023/08/18 02:02:47;;;;;;;6.65;4.50;;;;;;;23.50;43.03;93944.97;4988480;28;20379;-77
2023/08/18 02:05:13;;;;;;;8.05;5.10;;;;;;;23.42;43.22;93937.94;4994488;28;20026;-78
2023/08/18 02:07:38;;;;;;;5.65;4.47;;;;;;;23.40;43.43;93940.31;4987819;28;20032;-80
2023/08/18 02:10:06;;;;;;;6.25;4.25;;;;;;;23.30;43.50;93931.03;4989904;28;20091;-78
2023/08/18 02:12:31;;;;;;;5.93;4.40;;;;;;;23.29;43.79;93940.31;4987833;28;20455;-77
2023/08/18 02:14:57;;;;;;;7.60;4.93;;;;;;;23.27;43.77;93918.22;4991118;28;20044;-80
2023/08/18 02:17:22;;;;;;;11.27;4.85;;;;;;;23.25;43.53;93919.78;5009830;28;20029;-78
2023/08/18 02:19:47;;;;;;;5.70;4.03;;;;;;;23.23;43.84;93913.97;4993291;28;20169;-78
2023/08/18 02:22:13;;;;;;;7.97;4.20;;;;;;;23.20;43.94;93909.34;4995612;28;20090;-79
2023/08/18 02:24:38;;;;;;;5.88;4.88;;;;;;;23.22;44.07;93920.56;4998543;28;20040;-78
2023/08/18 02:27:04;;;;;;;8.82;4.13;;;;;;;23.17;43.82;93915.53;4998105;28;20399;-79
2023/08/18 02:29:30;;;;;;;4.90;3.63;;;;;;;23.06;43.86;93908.19;4998640;28;20037;-78
2023/08/18 02:31:56;;;;;;;7.60;4.20;;;;;;;23.17;43.91;93915.53;4995383;28;20024;-79
2023/08/18 02:34:21;;;;;;;5.53;4.50;;;;;;;23.04;43.66;93901.59;4996257;28;20867;-79
2023/08/18 02:36:46;;;;;;;6.30;4.38;;;;;;;23.07;43.82;93907.00;4983374;28;20039;-80
2023/08/18 02:39:12;;;;;;;8.55;3.53;;;;;;;23.05;44.02;93906.66;4994835;28;20040;-79
2023/08/18 02:41:37;;;;;;;5.78;4.38;;;;;;;23.05;43.66;93914.78;4993101;28;20035;-78
2023/08/18 02:44:03;;;;;;;6.22;4.18;;;;;;;22.97;44.08;93907.81;4993841;28;20022;-78
2023/08/18 02:46:29;;;;;;;9.52;4.65;;;;;;;22.92;44.34;93921.78;4993214;28;20030;-79
2023/08/18 02:48:54;;;;;;;5.88;3.88;;;;;;;22.85;43.65;93916.31;4986285;28;20365;-78
2023/08/18 02:51:19;;;;;;;7.13;3.78;;;;;;;22.52;44.33;93901.22;4991813;28;20161;-77
2023/08/18 02:53:48;;;;;;;8.00;4.30;;;;;;;22.49;44.26;93907.38;4994420;28;20048;-78
2023/08/18 02:56:15;;;;;;;4.75;4.22;;;;;;;22.51;45.08;93925.97;4991251;28;20049;-76
2023/08/18 02:58:41;;;;;;;7.55;3.72;;;;;;;22.45;44.63;93924.81;4996656;28;20117;-79
2023/08/18 03:01:07;;;;;;;7.05;4.13;;;;;;;22.42;44.97;93923.66;5010568;28;20045;-81
2023/08/18 03:03:35;;;;;;;4.93;4.43;;;;;;;22.39;45.32;93937.22;4990324;28;20493;-78
2023/08/18 03:06:02;;;;;;;6.53;4.32;;;;;;;22.34;46.03;93932.16;4991959;28;20397;-78
2023/08/18 03:08:28;;;;;;;7.32;4.30;;;;;;;22.19;46.70;93939.47;4999760;28;20129;-78
2023/08/18 03:10:59;;;;;;;4.57;3.92;;;;;;;22.33;45.71;93938.75;4989967;28;20470;-80
2023/08/18 03:13:25;;;;;;;4.18;3.78;;;;;;;22.28;45.91;93937.19;4993841;28;20046;-78
2023/08/18 03:15:51;;;;;;;8.90;4.20;;;;;;;22.16;45.95;93930.16;4988535;28;20042;-77
2023/08/18 03:18:16;;;;;;;4.68;4.25;;;;;;;22.12;46.12;93932.09;4989199;28;20505;-79
2023/08/18 03:20:43;;;;;;;9.32;3.40;;;;;;;22.08;46.17;93936.72;4990509;28;20026;-78
2023/08/18 03:23:10;;;;;;;5.22;3.92;;;;;;;22.17;46.04;93947.19;4989280;28;20030;-78
2023/08/18 03:25:36;;;;;;;4.47;3.95;;;;;;;22.12;45.82;93929.38;4989954;28;20073;-77
2023/08/18 03:28:01;;;;;;;5.82;4.30;;;;;;;22.17;46.35;93945.25;4995080;28;20128;-80
2023/08/18 03:30:27;;;;;;;4.10;3.80;;;;;;;22.14;45.66;93945.25;4975847;28;20400;-80
2023/08/18 03:32:55;;;;;;;6.00;4.75;;;;;;;22.15;45.90;93944.84;4988746;28;20035;-80
2023/08/18 03:35:21;;;;;;;4.95;4.32;;;;;;;22.00;46.55;93923.53;4995211;28;20154;-79
2023/08/18 03:37:46;;;;;;;5.80;4.38;;;;;;;21.93;46.56;93932.41;4997074;28;20437;-80
2023/08/18 03:40:12;;;;;;;7.32;4.47;;;;;;;21.93;46.64;93940.53;4992298;28;20045;-78
2023/08/18 03:42:37;;;;;;;8.93;4.75;;;;;;;21.94;46.40;93935.91;4991690;28;20566;-78
2023/08/18 03:45:04;;;;;;;7.82;4.53;;;;;;;21.86;46.54;93933.16;4995871;28;20230;-79
2023/08/18 03:47:30;;;;;;;11.68;6.45;;;;;;;21.87;46.58;93942.06;4992757;28;20031;-79
2023/08/18 03:49:55;;;;;;;12.30;6.03;;;;;;;21.83;46.53;93941.28;4985700;28;20512;-81
2023/08/18 03:52:20;;;;;;;8.15;5.25;;;;;;;21.85;46.70;93938.97;5005545;28;20042;-80
2023/08/18 03:54:46;;;;;;;8.05;5.05;;;;;;;21.89;46.89;93947.88;4992890;28;20070;-82
2023/08/18 03:57:11;;;;;;;6.15;4.68;;;;;;;21.88;47.00;93949.03;4972552;28;20069;-79
2023/08/18 03:59:37;;;;;;;8.20;4.00;;;;;;;21.84;47.30;93940.13;4986465;28;20543;-79
2023/08/18 04:02:02;;;;;;;5.93;4.88;;;;;;;21.82;47.40;93943.19;5003798;28;20045;-78
2023/08/18 04:04:28;;;;;;;8.30;4.18;;;;;;;21.87;47.25;93950.94;4988570;28;20135;-80
2023/08/18 04:06:53;;;;;;;5.13;4.25;;;;;;;21.83;47.08;93939.34;4989538;28;20428;-79
2023/08/18 04:09:18;;;;;;;6.13;4.43;;;;;;;21.85;47.45;93941.69;5004018;28;20078;-79
2023/08/18 04:11:44;;;;;;;6.40;3.95;;;;;;;21.87;47.53;93947.47;4991636;28;20434;-79
2023/08/18 04:14:10;;;;;;;9.77;4.95;;;;;;;21.81;48.02;93948.97;5011934;28;20117;-81
2023/08/18 04:16:35;;;;;;;5.68;4.07;;;;;;;21.85;48.28;93957.91;4986423;28;20042;-79
2023/08/18 04:19:03;;;;;;;9.32;4.90;;;;;;;21.89;48.36;93958.72;4991289;28;20037;-78
2023/08/18 04:21:29;;;;;;;7.47;4.75;;;;;;;21.88;48.62;93957.16;4988199;28;20710;-81
2023/08/18 04:23:55;;;;;;;5.45;4.95;;;;;;;21.89;48.48;93958.72;4989959;28;20122;-79
2023/08/18 04:26:20;;;;;;;5.03;4.00;;;;;;;21.89;48.20;93969.53;4988633;28;20015;-78
2023/08/18 04:28:46;;;;;;;5.85;5.18;;;;;;;21.76;48.89;93946.63;4993082;28;20121;-79
2023/08/18 04:31:12;;;;;;;8.70;4.43;;;;;;;21.95;48.17;93959.88;4992931;28;20061;-81
2023/08/18 04:33:37;;;;;;;7.50;4.75;;;;;;;21.97;48.02;93960.28;4993035;28;20075;-79
2023/08/18 04:36:03;;;;;;;6.18;5.20;;;;;;;21.91;48.04;93945.53;4993171;28;20073;-79
2023/08/18 04:38:29;;;;;;;10.38;5.28;;;;;;;22.02;48.20;93951.00;4991246;28;20069;-78
2023/08/18 04:40:59;;;;;;;7.15;4.80;;;;;;;22.07;47.90;93959.53;4994048;28;20026;-79
2023/08/18 04:43:25;;;;;;;6.43;4.82;;;;;;;22.15;47.76;93971.94;4989253;28;20284;-79
2023/08/18 04:45:51;;;;;;;8.60;4.78;;;;;;;22.15;47.81;93958.38;4990433;28;20224;-79
2023/08/18 04:48:16;;;;;;;6.68;4.43;;;;;;;22.15;47.61;93944.84;4993064;28;20038;-79
2023/08/18 04:50:42;;;;;;;8.60;4.88;;;;;;;22.24;46.96;93950.69;4987783;28;20033;-81
2023/08/18 04:53:07;;;;;;;8.40;4.38;;;;;;;22.30;47.52;93968.13;4984337;28;20083;-80
2023/08/18 04:55:35;;;;;;;11.35;4.60;;;;;;;22.28;46.86;93961.56;4981838;28;20413;-79
2023/08/18 04:58:02;;;;;;;9.15;5.28;;;;;;;22.45;46.86;93970.88;4992156;28;20036;-79
2023/08/18 05:00:28;;;;;;;8.73;5.25;;;;;;;22.43;46.82;93967.78;4986487;28;20042;-79
2023/08/18 05:02:53;;;;;;;6.18;4.55;;;;;;;22.36;47.04;93954.22;4987346;28;20211;-80
2023/08/18 05:05:20;;;;;;;6.88;4.28;;;;;;;22.32;47.10;93954.22;4971828;28;20512;-80
2023/08/18 05:07:45;;;;;;;7.72;5.25;;;;;;;22.45;46.57;93970.88;4986821;28;20122;-83
2023/08/18 05:10:11;;;;;;;9.82;4.55;;;;;;;22.54;47.16;93963.16;4977389;28;20141;-79
2023/08/18 05:12:37;;;;;;;6.70;4.57;;;;;;;22.78;46.57;93986.78;4991807;28;20036;-80
2023/08/18 05:15:03;;;;;;;11.38;4.93;;;;;;;22.85;46.24;93980.63;4985352;28;20051;-80
2023/08/18 05:17:29;;;;;;;9.25;4.15;;;;;;;22.88;45.96;93955.47;4994896;28;20391;-78
2023/08/18 05:19:54;;;;;;;8.73;5.25;;;;;;;22.99;45.97;93972.50;4995333;28;20502;-78
2023/08/18 05:22:21;;;;;;;6.28;4.55;;;;;;;23.01;45.82;93957.41;4989565;28;20047;-79
2023/08/18 05:24:50;;;;;;;9.43;5.03;;;;;;;23.11;45.78;93958.56;4994307;28;20065;-78
2023/08/18 05:27:16;;;;;;;7.03;4.80;;;;;;;22.89;46.45;93990.34;4991334;28;20046;-78
2023/08/18 05:29:42;;;;;;;15.20;4.90;;;;;;;23.10;46.13;93982.22;4991338;28;20628;-79
2023/08/18 05:32:07;;;;;;;9.48;5.72;;;;;;;23.26;45.61;93976.38;4996814;28;20100;-77
2023/08/18 05:34:33;;;;;;;8.23;4.85;;;;;;;23.33;45.52;93978.28;4990317;28;20081;-80
2023/08/18 05:36:58;;;;;;;8.13;4.85;;;;;;;23.33;45.47;93981.00;4981125;28;20129;-78
2023/08/18 05:39:24;;;;;;;7.55;4.82;;;;;;;23.25;45.93;93957.78;4986388;28;20213;-77
2023/08/18 05:41:49;;;;;;;6.55;5.57;;;;;;;23.36;45.44;93981.03;4990351;28;20054;-79
2023/08/18 05:44:14;;;;;;;6.95;5.30;;;;;;;23.29;45.88;93978.31;4986718;28;20030;-78
2023/08/18 05:46:40;;;;;;;7.82;4.80;;;;;;;23.48;45.80;93980.59;4987209;28;20030;-79
2023/08/18 05:49:07;;;;;;;9.75;5.85;;;;;;;23.25;46.15;93982.19;4992893;28;20135;-81
2023/08/18 05:51:32;;;;;;;6.90;4.72;;;;;;;23.37;45.89;93976.34;4987274;28;20111;-78
2023/08/18 05:53:58;;;;;;;8.73;5.13;;;;;;;23.51;45.77;93968.25;4995780;28;20541;-80
2023/08/18 05:56:23;;;;;;;6.75;4.78;;;;;;;23.48;45.23;93980.59;4996139;28;20037;-78
2023/08/18 05:58:48;;;;;;;8.90;5.13;;;;;;;23.68;45.49;93983.69;4995391;28;20454;-79
2023/08/18 06:01:17;;;;;;;6.80;4.63;;;;;;;23.79;44.63;93967.38;4993196;28;20183;-79
2023/08/18 06:03:43;;;;;;;5.03;4.47;;;;;;;23.89;45.04;93970.06;4992992;28;20123;-80
2023/08/18 06:06:08;;;;;;;7.45;4.97;;;;;;;24.01;44.67;93966.88;4977326;28;20114;-79
2023/08/18 06:08:34;;;;;;;9.52;5.50;;;;;;;24.01;45.10;93979.69;4992158;28;20054;-79
2023/08/18 06:10:59;;;;;;;6.78;4.60;;;;;;;23.22;45.61;93901.59;4993767;28;20070;-80
2023/08/18 06:13:25;;;;;;;10.65;5.30;;;;;;;23.98;44.61;93972.34;4995010;28;20091;-80
2023/08/18 06:15:52;;;;;;;10.20;4.90;;;;;;;23.91;44.61;93966.94;4994872;28;20049;-78
2023/08/18 06:18:18;;;;;;;12.45;5.47;;;;;;;23.92;44.69;93955.69;4993441;28;20092;-78
2023/08/18 06:20:45;;;;;;;7.45;4.88;;;;;;;23.96;44.20;93983.59;4995293;28;20022;-77
2023/08/18 06:23:11;;;;;;;10.25;5.82;;;;;;;23.86;45.14;93959.97;4998240;28;20027;-79
2023/08/18 06:25:36;;;;;;;7.97;4.53;;;;;;;23.74;45.66;93957.69;4994619;28;20030;-79
2023/08/18 06:28:02;;;;;;;6.95;4.85;;;;;;;24.03;45.06;93963.78;4987768;28;20045;-79
2023/08/18 06:30:27;;;;;;;6.28;4.35;;;;;;;23.89;44.30;93970.06;4995924;28;20038;-78
2023/08/18 06:32:53;;;;;;;5.25;4.35;;;;;;;23.71;44.98;93965.84;4997450;28;20039;-79
2023/08/18 06:35:18;;;;;;;11.65;4.93;;;;;;;23.67;45.46;93979.44;4990576;28;20050;-79
2023/08/18 06:37:44;;;;;;;9.57;5.60;;;;;;;23.68;46.14;93982.91;4993859;28;20034;-80
2023/08/18 06:40:10;;;;;;;13.07;5.20;;;;;;;23.79;45.60;93979.00;4986348;28;20156;-79
2023/08/18 06:42:35;;;;;;;17.45;6.13;;;;;;;23.79;45.51;93973.59;4988501;28;20069;-78
2023/08/18 06:45:01;;;;;;;11.80;4.82;;;;;;;23.82;46.00;93978.22;4992620;28;20034;-81
2023/08/18 06:47:26;;;;;;;9.07;5.57;;;;;;;23.70;45.48;93975.16;4984216;28;20027;-79
2023/08/18 06:49:52;;;;;;;8.65;4.68;;;;;;;23.87;45.24;93974.31;4973331;28;20040;-81
2023/08/18 06:52:20;;;;;;;7.72;5.05;;;;;;;23.89;44.28;93975.50;4995351;28;20118;-79
2023/08/18 06:54:47;;;;;;;13.10;4.90;;;;;;;23.84;43.98;93975.13;4990405;28;20069;-80
2023/08/18 06:57:12;;;;;;;5.93;4.03;;;;;;;23.82;45.47;93980.94;4990117;28;20446;-79
2023/08/18 06:59:37;;;;;;;8.52;4.50;;;;;;;24.00;44.45;93972.75;4988972;28;20028;-78
2023/08/18 07:02:03;;;;;;;7.13;3.95;;;;;;;24.19;43.61;93979.66;4989185;28;20039;-80
2023/08/18 07:04:28;;;;;;;7.25;4.15;;;;;;;24.14;43.80;93978.13;4993966;28;20175;-79
2023/08/18 07:06:54;;;;;;;12.57;4.32;;;;;;;24.22;43.34;93984.31;4993660;28;20029;-76
2023/08/18 07:09:19;;;;;;;6.47;3.83;;;;;;;24.21;43.52;93977.31;5003405;28;20039;-81
2023/08/18 07:11:45;;;;;;;15.05;4.10;;;;;;;24.39;43.70;93972.59;4992860;28;20493;-78
2023/08/18 07:14:11;;;;;;;8.40;3.97;;;;;;;24.53;43.07;93966.28;4992300;28;20113;-81
2023/08/18 07:16:37;;;;;;;8.40;4.22;;;;;;;24.49;42.61;93960.88;4995298;28;20193;-78
2023/08/18 07:19:03;;;;;;;7.00;5.07;;;;;;;24.37;42.25;93953.16;4985512;28;20051;-79
2023/08/18 07:21:28;;;;;;;9.18;3.83;;;;;;;24.38;42.48;93968.31;4991046;28;20058;-79
2023/08/18 07:23:54;;;;;;;6.32;4.32;;;;;;;24.06;42.34;93962.22;4991382;28;20401;-78
2023/08/18 07:26:19;;;;;;;6.10;3.08;;;;;;;24.39;42.15;93972.59;4999607;28;20062;-80
2023/08/18 07:28:44;;;;;;;4.72;3.58;;;;;;;24.74;41.46;93966.94;4986485;28;20038;-80
2023/08/18 07:31:10;;;;;;;5.75;3.08;;;;;;;24.43;39.74;93949.66;4997562;28;20489;-81
2023/08/18 07:33:36;;;;;;;3.83;2.63;;;;;;;24.43;39.52;93960.50;4989768;28;20505;-80
2023/08/18 07:36:01;;;;;;;5.93;3.05;;;;;;;24.64;39.71;93973.19;4991458;28;20034;-80
2023/08/18 07:38:27;;;;;;;5.95;3.60;;;;;;;24.76;40.36;93948.28;4989421;28;20601;-79
2023/08/18 07:40:52;;;;;;;4.50;2.78;;;;;;;24.40;39.54;93963.22;4997178;28;20512;-79
2023/08/18 07:43:18;;;;;;;7.85;3.47;;;;;;;24.32;40.60;93959.03;4989484;28;20034;-80
2023/08/18 07:45:43;;;;;;;5.30;3.03;;;;;;;24.79;40.50;93974.66;4995753;28;20038;-80
2023/08/18 07:48:09;;;;;;;7.25;3.47;;;;;;;24.83;40.23;93977.38;4984167;28;20038;-80
2023/08/18 07:50:34;;;;;;;6.88;4.30;;;;;;;24.81;41.43;93956.00;4993195;28;20031;-78
2023/08/18 07:52:59;;;;;;;9.00;4.43;;;;;;;24.63;41.92;93977.09;4994476;28;20033;-77
2023/08/18 07:55:25;;;;;;;6.95;4.38;;;;;;;24.65;41.40;93957.66;4986126;28;20069;-77
2023/08/18 07:57:50;;;;;;;7.70;3.70;;;;;;;24.60;41.46;93968.94;4987748;28;20045;-78
2023/08/18 08:00:17;;;;;;;6.88;3.88;;;;;;;24.90;41.29;93973.81;4988636;28;20190;-79
2023/08/18 08:02:44;;;;;;;7.63;3.83;;;;;;;25.10;41.60;93978.31;4993769;28;20038;-78
2023/08/18 08:05:10;;;;;;;9.20;4.50;;;;;;;25.14;41.20;93983.72;4985947;28;20486;-77
2023/08/18 08:07:36;;;;;;;10.18;3.95;;;;;;;25.03;40.98;93983.06;4990516;28;20057;-78
2023/08/18 08:10:03;;;;;;;7.22;4.47;;;;;;;24.93;41.29;93984.66;4987777;28;20038;-78
2023/08/18 08:12:34;;;;;;;6.95;4.05;;;;;;;24.82;41.02;93979.31;4983156;28;20449;-78
2023/08/18 08:15:00;;;;;;;5.90;3.70;;;;;;;24.90;41.46;93973.81;4989160;28;20059;-77
2023/08/18 08:17:29;;;;;;;5.40;3.53;;;;;;;25.07;41.04;93976.41;5001079;28;20026;-78
2023/08/18 08:19:56;;;;;;;8.95;3.55;;;;;;;25.00;40.75;93951.19;4993929;28;20627;-77
2023/08/18 08:22:22;;;;;;;4.30;3.85;;;;;;;24.96;40.47;93951.22;4989601;28;20036;-77
2023/08/18 08:24:48;;;;;;;4.75;3.38;;;;;;;25.23;40.70;93965.75;4990036;28;20117;-79
2023/08/18 08:27:15;;;;;;;7.25;3.53;;;;;;;25.18;39.33;93959.97;4981070;28;20129;-79
2023/08/18 08:29:41;;;;;;;7.97;3.65;;;;;;;25.46;38.92;93961.72;4992385;28;20482;-78
2023/08/18 08:32:06;;;;;;;7.82;3.75;;;;;;;25.52;39.30;93960.84;4994657;28;20663;-78
2023/08/18 08:34:32;;;;;;;6.07;3.20;;;;;;;25.51;38.54;93959.31;4986093;28;20038;-77
2023/08/18 08:36:58;;;;;;;7.70;2.78;;;;;;;25.76;38.64;93963.75;4983596;28;20038;-78
2023/08/18 08:39:23;;;;;;;4.35;3.28;;;;;;;25.95;37.97;93968.59;4989790;28;20034;-78
2023/08/18 08:41:48;;;;;;;5.20;2.95;;;;;;;26.08;38.18;93964.16;4990796;28;20057;-78
2023/08/18 08:44:14;;;;;;;4.40;2.50;;;;;;;26.24;37.39;93958.13;4997122;28;20264;-80
2023/08/18 08:46:40;;;;;;;3.90;2.88;;;;;;;26.02;36.52;93954.88;4983650;28;20034;-80
2023/08/18 08:49:07;;;;;;;6.65;3.08;;;;;;;25.82;36.45;93953.91;4980664;28;20502;-78
2023/08/18 08:51:37;;;;;;;7.18;2.80;;;;;;;25.83;36.57;93963.63;4982703;28;20049;-80
2023/08/18 08:54:05;;;;;;;4.90;2.78;;;;;;;25.57;35.79;93946.00;4980051;28;20640;-78
2023/08/18 08:56:34;;;;;;;4.00;2.80;;;;;;;25.64;35.98;93963.06;4980308;28;20024;-80
2023/08/18 08:59:00;;;;;;;6.47;2.70;;;;;;;25.52;36.15;93966.28;4987022;28;20026;-78
2023/08/18 09:01:26;;;;;;;5.82;3.15;;;;;;;25.73;35.86;93964.53;4984606;28;20339;-79
2023/08/18 09:03:51;;;;;;;7.85;3.03;;;;;;;25.88;36.15;93955.03;4987939;28;20042;-78
2023/08/18 09:06:17;;;;;;;9.27;2.80;;;;;;;25.56;36.57;93963.56;4985069;28;20076;-80
2023/08/18 09:08:42;;;;;;;3.85;2.70;;;;;;;25.51;36.75;93920.44;4983727;28;20028;-79
2023/08/18 09:11:08;;;;;;;9.93;2.88;;;;;;;25.52;36.55;93954.63;5000436;28;20038;-78
2023/08/18 09:13:35;;;;;;;3.75;3.00;;;;;;;25.76;36.54;93950.13;5002303;28;20321;-80
2023/08/18 09:16:03;;;;;;;6.47;3.05;;;;;;;25.64;36.67;93949.44;4987345;28;20359;-79
2023/08/18 09:18:31;;;;;;;7.00;3.60;;;;;;;25.91;36.96;93946.09;4970873;28;20096;-79
2023/08/18 09:20:57;;;;;;;9.27;2.78;;;;;;;26.12;39.49;93951.25;4991836;28;20039;-80
2023/08/18 09:23:26;;;;;;;4.55;2.72;;;;;;;26.14;36.48;93940.72;4980795;28;20461;-80
2023/08/18 09:25:55;;;;;;;4.20;2.88;;;;;;;26.18;36.23;93938.72;4985794;28;20041;-79
2023/08/18 09:28:21;;;;;;;5.93;2.92;;;;;;;26.35;36.49;93945.13;4972293;28;20574;-81
2023/08/18 09:30:46;;;;;;;4.53;2.47;;;;;;;26.37;35.56;93934.56;4986427;28;20051;-79
2023/08/18 09:33:12;;;;;;;5.38;2.20;;;;;;;25.95;36.26;93933.19;4984081;28;20042;-79
2023/08/18 09:35:37;;;;;;;7.53;3.33;;;;;;;26.08;35.90;93942.34;4982019;28;20130;-81
2023/08/18 09:38:03;;;;;;;5.10;2.20;;;;;;;26.44;35.68;93959.03;5008814;28;20033;-79
2023/08/18 09:40:29;;;;;;;7.40;2.80;;;;;;;26.37;35.51;93948.19;4992572;28;20110;-80
2023/08/18 09:42:55;;;;;;;3.00;2.20;;;;;;;26.23;35.48;93951.91;4990995;28;20049;-79
2023/08/18 09:45:23;;;;;;;4.22;2.28;;;;;;;26.20;35.23;93954.69;4989875;28;20036;-79
2023/08/18 09:47:55;;;;;;;2.83;2.13;;;;;;;26.43;36.76;93952.78;4989224;28;20026;-80
2023/08/18 09:50:27;;;;;;;4.45;3.05;;;;;;;26.19;37.04;93915.75;4974826;28;20024;-79
2023/08/18 09:52:55;;;;;;;3.38;2.13;;;;;;;26.23;35.59;93943.72;4976138;28;20062;-77
2023/08/18 09:55:29;;;;;;;4.13;2.40;;;;;;;26.47;36.49;93950.03;4991648;28;20034;-82
2023/08/18 09:58:28;;;;;;;2.80;2.60;;;;;;;26.55;35.94;93938.63;4993775;28;20784;-79
2023/08/18 10:00:57;;;;;;;3.45;2.58;;;;;;;26.63;35.43;93935.78;4986624;28;20030;-80
2023/08/18 10:03:26;;;;;;;5.00;2.83;;;;;;;26.45;34.98;93933.28;4988249;28;20099;-79
2023/08/18 10:05:53;;;;;;;5.35;2.67;;;;;;;26.54;36.64;93936.31;4987411;28;20117;-80
2023/08/18 10:08:21;;;;;;;6.88;3.17;;;;;;;26.38;35.77;93938.84;4977926;28;20502;-78
2023/08/18 10:10:47;;;;;;;8.48;2.45;;;;;;;26.52;35.40;93936.72;4994873;28;20034;-79
2023/08/18 10:13:13;;;;;;;5.22;2.92;;;;;;;26.27;35.70;93939.00;4991044;28;20042;-81
2023/08/18 10:15:39;;;;;;;6.18;2.90;;;;;;;26.36;35.38;93935.75;4987029;28;20147;-78
2023/08/18 10:18:09;;;;;;;3.85;2.25;;;;;;;26.33;35.37;93936.59;4989997;28;20076;-78
2023/08/18 10:20:35;;;;;;;6.00;2.50;;;;;;;26.73;34.77;93943.81;4977052;28;20035;-80
2023/08/18 10:23:01;;;;;;;13.93;3.13;;;;;;;26.88;34.75;93933.47;4982388;28;20134;-79
2023/08/18 10:25:31;;;;;;;7.03;2.92;;;;;;;26.83;34.57;93937.44;4974982;28;20039;-79
2023/08/18 10:27:57;;;;;;;4.53;2.63;;;;;;;26.96;35.58;93952.03;4982590;28;20086;-79
2023/08/18 10:30:24;;;;;;;4.03;2.83;;;;;;;27.05;35.39;93948.78;4982996;28;20429;-79
2023/08/18 10:32:51;;;;;;;6.97;3.35;;;;;;;27.05;35.07;93932.41;4995020;28;20038;-78
2023/08/18 10:35:22;;;;;;;8.55;3.08;;;;;;;26.90;34.33;93942.00;4978686;28;20059;-81
2023/08/18 10:37:51;;;;;;;8.73;3.40;;;;;;;26.73;35.12;93943.06;4984843;28;20038;-80
2023/08/18 10:40:30;;;;;;;3.42;2.60;;;;;;;26.83;35.04;93939.38;4984470;28;20364;-78
2023/08/18 10:43:05;;;;;;;6.28;3.13;;;;;;;26.88;34.19;93944.38;4985540;28;20049;-80
2023/08/18 10:45:31;;;;;;;9.57;2.72;;;;;;;26.90;34.77;93947.44;4972840;28;20513;-79
2023/08/18 10:48:03;;;;;;;7.70;2.65;;;;;;;26.96;35.91;93934.88;4986982;28;20569;-78
2023/08/18 10:50:29;;;;;;;6.55;2.83;;;;;;;27.14;35.67;93919.00;4982757;28;20047;-78
2023/08/18 10:52:56;;;;;;;4.45;2.80;;;;;;;27.10;34.93;93926.50;4982855;28;20082;-79
2023/08/18 10:55:25;;;;;;;6.13;2.60;;;;;;;27.15;34.54;93928.75;4986104;28;20654;-80
2023/08/18 10:57:51;;;;;;;8.48;2.95;;;;;;;27.13;34.96;93925.66;4973830;28;20055;-79
2023/08/18 11:00:18;;;;;;;5.10;3.38;;;;;;;26.84;34.84;93905.44;4987747;28;20476;-80
2023/08/18 11:02:52;;;;;;;6.65;3.45;;;;;;;27.04;35.22;93925.41;4987121;28;20252;-80
2023/08/18 11:05:20;;;;;;;3.30;2.88;;;;;;;26.92;34.98;93934.16;4991688;28;20150;-79
2023/08/18 11:07:45;;;;;;;6.60;3.17;;;;;;;26.94;34.99;93926.31;4992493;28;20034;-79
2023/08/18 11:10:14;;;;;;;4.40;2.92;;;;;;;27.08;34.41;93926.16;4996935;28;20064;-80
2023/08/18 11:12:41;;;;;;;7.28;3.78;;;;;;;27.24;37.83;93934.44;4983375;28;20953;-79
2023/08/18 11:15:07;;;;;;;6.65;4.22;;;;;;;27.16;35.16;93918.59;4993733;28;20041;-80
2023/08/18 11:17:32;;;;;;;3.78;2.92;;;;;;;27.18;34.80;93911.53;4987291;28;20034;-79
2023/08/18 11:19:58;;;;;;;7.88;3.45;;;;;;;27.22;35.03;93936.06;4994318;28;20762;-79
2023/08/18 11:22:23;;;;;;;7.72;2.95;;;;;;;27.52;35.71;93927.69;4990784;28;20120;-78
2023/08/18 11:24:50;;;;;;;5.63;2.72;;;;;;;27.72;35.29;93919.53;4989783;28;20077;-79
2023/08/18 11:27:15;;;;;;;6.13;3.33;;;;;;;27.45;33.58;93921.59;4994398;28;20034;-79
2023/08/18 11:29:40;;;;;;;8.38;4.30;;;;;;;27.44;33.80;93915.34;4986565;28;20045;-81